sensor_id;sensor_type;location;lat;lon;timestamp;P1;durP1;ratioP1;P2;durP2;ratioP2
4696;SDS011;2362;50.780;0.292;2022-12-05T00:01:58;68.45;;;28.83;;
4696;SDS011;2362;50.780;0.292;2022-12-05T00:04:24;65.78;;;28.55;;
4696;SDS011;2362;50.780;0.292;2022-12-05T00:06:49;74.75;;;30.48;;
4696;SDS011;2362;50.780;0.292;2022-12-05T00:09:15;74.00;;;29.33;;
4696;SDS011;2362;50.780;0.292;2022-12-05T00:11:41;69.03;;;29.00;;
4696;SDS011;2362;50.780;0.292;2022-12-05T00:14:08;67.28;;;28.60;;
4696;SDS011;2362;50.780;0.292;2022-12-05T00:16:36;65.47;;;28.48;;
4696;SDS011;2362;50.780;0.292;2022-12-05T00:19:03;59.50;;;26.98;;
4696;SDS011;2362;50.780;0.292;2022-12-05T00:21:31;58.35;;;27.35;;
4696;SDS011;2362;50.780;0.292;2022-12-05T00:23:59;59.03;;;26.98;;
4696;SDS011;2362;50.780;0.292;2022-12-05T00:26:26;56.30;;;26.77;;
4696;SDS011;2362;50.780;0.292;2022-12-05T00:28:53;57.63;;;27.00;;
4696;SDS011;2362;50.780;0.292;2022-12-05T00:31:21;59.83;;;26.75;;
4696;SDS011;2362;50.780;0.292;2022-12-05T00:33:47;64.22;;;26.17;;
4696;SDS011;2362;50.780;0.292;2022-12-05T00:36:15;67.22;;;28.05;;
4696;SDS011;2362;50.780;0.292;2022-12-05T00:38:45;65.00;;;26.80;;
4696;SDS011;2362;50.780;0.292;2022-12-05T00:41:12;67.30;;;27.40;;
4696;SDS011;2362;50.780;0.292;2022-12-05T00:43:40;59.67;;;27.88;;
4696;SDS011;2362;50.780;0.292;2022-12-05T00:46:11;62.35;;;27.52;;
4696;SDS011;2362;50.780;0.292;2022-12-05T00:48:42;66.97;;;28.63;;
4696;SDS011;2362;50.780;0.292;2022-12-05T00:51:10;67.10;;;30.00;;
4696;SDS011;2362;50.780;0.292;2022-12-05T00:53:36;61.63;;;28.15;;
4696;SDS011;2362;50.780;0.292;2022-12-05T00:56:02;62.80;;;28.02;;
4696;SDS011;2362;50.780;0.292;2022-12-05T00:58:30;69.30;;;30.50;;
4696;SDS011;2362;50.780;0.292;2022-12-05T01:00:56;71.63;;;30.60;;
4696;SDS011;2362;50.780;0.292;2022-12-05T01:03:22;66.15;;;28.90;;
4696;SDS011;2362;50.780;0.292;2022-12-05T01:05:48;66.20;;;28.90;;
4696;SDS011;2362;50.780;0.292;2022-12-05T01:08:14;66.70;;;28.25;;
4696;SDS011;2362;50.780;0.292;2022-12-05T01:10:39;65.38;;;30.80;;
4696;SDS011;2362;50.780;0.292;2022-12-05T01:13:05;56.47;;;27.83;;
4696;SDS011;2362;50.780;0.292;2022-12-05T01:15:31;58.90;;;30.25;;
4696;SDS011;2362;50.780;0.292;2022-12-05T01:18:01;58.83;;;27.02;;
4696;SDS011;2362;50.780;0.292;2022-12-05T01:20:27;72.97;;;31.77;;
4696;SDS011;2362;50.780;0.292;2022-12-05T01:22:52;58.88;;;26.95;;
4696;SDS011;2362;50.780;0.292;2022-12-05T01:25:18;73.28;;;29.67;;
4696;SDS011;2362;50.780;0.292;2022-12-05T01:27:44;57.85;;;27.80;;
4696;SDS011;2362;50.780;0.292;2022-12-05T01:30:10;64.53;;;30.13;;
4696;SDS011;2362;50.780;0.292;2022-12-05T01:32:36;61.83;;;28.73;;
4696;SDS011;2362;50.780;0.292;2022-12-05T01:35:02;59.75;;;29.48;;
4696;SDS011;2362;50.780;0.292;2022-12-05T01:37:27;64.03;;;29.00;;
4696;SDS011;2362;50.780;0.292;2022-12-05T01:39:53;68.60;;;30.67;;
4696;SDS011;2362;50.780;0.292;2022-12-05T01:42:19;60.95;;;29.48;;
4696;SDS011;2362;50.780;0.292;2022-12-05T01:47:14;64.93;;;29.40;;
4696;SDS011;2362;50.780;0.292;2022-12-05T01:49:42;67.28;;;28.48;;
4696;SDS011;2362;50.780;0.292;2022-12-05T01:52:17;67.80;;;28.20;;
4696;SDS011;2362;50.780;0.292;2022-12-05T01:54:48;65.30;;;29.17;;
4696;SDS011;2362;50.780;0.292;2022-12-05T01:57:16;63.97;;;29.55;;
4696;SDS011;2362;50.780;0.292;2022-12-05T01:59:46;63.80;;;31.65;;
4696;SDS011;2362;50.780;0.292;2022-12-05T02:02:16;64.15;;;31.20;;
4696;SDS011;2362;50.780;0.292;2022-12-05T02:05:05;62.58;;;30.83;;
4696;SDS011;2362;50.780;0.292;2022-12-05T02:07:48;75.40;;;28.83;;
4696;SDS011;2362;50.780;0.292;2022-12-05T02:10:15;67.13;;;30.77;;
4696;SDS011;2362;50.780;0.292;2022-12-05T02:12:41;79.43;;;31.63;;
4696;SDS011;2362;50.780;0.292;2022-12-05T02:18:17;74.55;;;31.27;;
4696;SDS011;2362;50.780;0.292;2022-12-05T02:31:56;71.28;;;32.25;;
4696;SDS011;2362;50.780;0.292;2022-12-05T02:34:46;72.57;;;30.05;;
4696;SDS011;2362;50.780;0.292;2022-12-05T02:38:14;71.78;;;29.33;;
4696;SDS011;2362;50.780;0.292;2022-12-05T02:40:38;68.03;;;31.88;;
4696;SDS011;2362;50.780;0.292;2022-12-05T02:43:13;70.40;;;30.55;;
4696;SDS011;2362;50.780;0.292;2022-12-05T02:45:53;79.93;;;30.83;;
4696;SDS011;2362;50.780;0.292;2022-12-05T02:48:24;71.55;;;34.08;;
4696;SDS011;2362;50.780;0.292;2022-12-05T02:50:53;73.15;;;32.20;;
4696;SDS011;2362;50.780;0.292;2022-12-05T02:53:21;62.85;;;29.20;;
4696;SDS011;2362;50.780;0.292;2022-12-05T02:55:49;73.65;;;30.65;;
4696;SDS011;2362;50.780;0.292;2022-12-05T02:58:16;72.97;;;33.13;;
4696;SDS011;2362;50.780;0.292;2022-12-05T03:00:48;65.60;;;30.85;;
4696;SDS011;2362;50.780;0.292;2022-12-05T03:03:18;71.57;;;29.55;;
4696;SDS011;2362;50.780;0.292;2022-12-05T03:08:35;71.88;;;32.08;;
4696;SDS011;2362;50.780;0.292;2022-12-05T03:11:09;76.43;;;32.40;;
4696;SDS011;2362;50.780;0.292;2022-12-05T03:13:37;72.90;;;32.17;;
4696;SDS011;2362;50.780;0.292;2022-12-05T03:16:13;77.45;;;32.33;;
4696;SDS011;2362;50.780;0.292;2022-12-05T03:19:02;73.90;;;30.80;;
4696;SDS011;2362;50.780;0.292;2022-12-05T03:21:42;74.20;;;32.78;;
4696;SDS011;2362;50.780;0.292;2022-12-05T03:24:15;75.88;;;31.67;;
4696;SDS011;2362;50.780;0.292;2022-12-05T03:29:30;71.25;;;31.25;;
4696;SDS011;2362;50.780;0.292;2022-12-05T03:32:27;74.63;;;32.17;;
4696;SDS011;2362;50.780;0.292;2022-12-05T03:34:57;68.13;;;31.67;;
4696;SDS011;2362;50.780;0.292;2022-12-05T03:40:14;74.32;;;32.70;;
4696;SDS011;2362;50.780;0.292;2022-12-05T03:42:59;71.95;;;33.33;;
4696;SDS011;2362;50.780;0.292;2022-12-05T03:45:36;69.82;;;33.00;;
4696;SDS011;2362;50.780;0.292;2022-12-05T03:48:15;72.00;;;32.88;;
4696;SDS011;2362;50.780;0.292;2022-12-05T03:50:48;70.60;;;31.33;;
4696;SDS011;2362;50.780;0.292;2022-12-05T03:53:21;60.58;;;30.88;;
4696;SDS011;2362;50.780;0.292;2022-12-05T03:55:57;68.78;;;30.48;;
4696;SDS011;2362;50.780;0.292;2022-12-05T03:58:30;77.55;;;32.95;;
4696;SDS011;2362;50.780;0.292;2022-12-05T04:01:02;74.22;;;33.85;;
4696;SDS011;2362;50.780;0.292;2022-12-05T04:03:35;81.60;;;35.42;;
4696;SDS011;2362;50.780;0.292;2022-12-05T04:06:08;71.57;;;32.78;;
4696;SDS011;2362;50.780;0.292;2022-12-05T04:09:04;74.93;;;33.70;;
4696;SDS011;2362;50.780;0.292;2022-12-05T04:11:35;82.93;;;34.10;;
4696;SDS011;2362;50.780;0.292;2022-12-05T04:14:07;73.07;;;32.33;;
4696;SDS011;2362;50.780;0.292;2022-12-05T04:16:39;76.38;;;34.05;;
4696;SDS011;2362;50.780;0.292;2022-12-05T04:22:18;72.78;;;33.35;;
4696;SDS011;2362;50.780;0.292;2022-12-05T04:24:46;74.35;;;35.45;;
4696;SDS011;2362;50.780;0.292;2022-12-05T04:30:23;84.80;;;35.60;;
4696;SDS011;2362;50.780;0.292;2022-12-05T04:35:28;81.78;;;36.08;;
4696;SDS011;2362;50.780;0.292;2022-12-05T04:38:19;87.50;;;36.92;;
4696;SDS011;2362;50.780;0.292;2022-12-05T04:41:00;84.88;;;35.20;;
4696;SDS011;2362;50.780;0.292;2022-12-05T04:43:29;76.60;;;36.35;;
4696;SDS011;2362;50.780;0.292;2022-12-05T04:45:58;94.28;;;37.55;;
4696;SDS011;2362;50.780;0.292;2022-12-05T04:48:27;80.32;;;37.13;;
4696;SDS011;2362;50.780;0.292;2022-12-05T04:50:54;84.90;;;36.85;;
4696;SDS011;2362;50.780;0.292;2022-12-05T04:53:23;96.30;;;38.50;;
4696;SDS011;2362;50.780;0.292;2022-12-05T04:55:53;83.55;;;37.67;;
4696;SDS011;2362;50.780;0.292;2022-12-05T04:58:23;86.00;;;37.75;;
4696;SDS011;2362;50.780;0.292;2022-12-05T05:00:56;84.30;;;38.30;;
4696;SDS011;2362;50.780;0.292;2022-12-05T05:03:31;103.40;;;39.55;;
4696;SDS011;2362;50.780;0.292;2022-12-05T05:06:11;84.00;;;39.42;;
4696;SDS011;2362;50.780;0.292;2022-12-05T05:08:45;104.00;;;39.30;;
4696;SDS011;2362;50.780;0.292;2022-12-05T05:13:49;84.22;;;39.65;;
4696;SDS011;2362;50.780;0.292;2022-12-05T05:16:18;97.05;;;39.58;;
4696;SDS011;2362;50.780;0.292;2022-12-05T05:18:49;92.38;;;40.35;;
4696;SDS011;2362;50.780;0.292;2022-12-05T05:21:41;92.85;;;41.58;;
4696;SDS011;2362;50.780;0.292;2022-12-05T05:24:08;94.10;;;39.85;;
4696;SDS011;2362;50.780;0.292;2022-12-05T05:26:37;100.75;;;43.97;;
4696;SDS011;2362;50.780;0.292;2022-12-05T05:29:04;99.47;;;43.42;;
4696;SDS011;2362;50.780;0.292;2022-12-05T05:31:31;99.30;;;43.60;;
4696;SDS011;2362;50.780;0.292;2022-12-05T05:33:57;92.43;;;41.75;;
4696;SDS011;2362;50.780;0.292;2022-12-05T05:36:51;109.97;;;43.08;;
4696;SDS011;2362;50.780;0.292;2022-12-05T05:39:17;102.57;;;43.38;;
4696;SDS011;2362;50.780;0.292;2022-12-05T05:41:43;117.47;;;45.78;;
4696;SDS011;2362;50.780;0.292;2022-12-05T05:44:08;103.65;;;45.83;;
4696;SDS011;2362;50.780;0.292;2022-12-05T05:46:34;97.65;;;43.15;;
4696;SDS011;2362;50.780;0.292;2022-12-05T05:49:00;109.18;;;44.08;;
4696;SDS011;2362;50.780;0.292;2022-12-05T05:51:26;110.10;;;45.60;;
4696;SDS011;2362;50.780;0.292;2022-12-05T05:53:54;113.18;;;46.42;;
4696;SDS011;2362;50.780;0.292;2022-12-05T05:56:21;107.63;;;44.92;;
4696;SDS011;2362;50.780;0.292;2022-12-05T05:58:46;111.00;;;43.95;;
4696;SDS011;2362;50.780;0.292;2022-12-05T06:01:18;102.03;;;44.83;;
4696;SDS011;2362;50.780;0.292;2022-12-05T06:03:44;105.80;;;44.72;;
4696;SDS011;2362;50.780;0.292;2022-12-05T06:06:11;103.40;;;43.53;;
4696;SDS011;2362;50.780;0.292;2022-12-05T06:08:39;102.57;;;42.92;;
4696;SDS011;2362;50.780;0.292;2022-12-05T06:11:09;108.03;;;46.33;;
4696;SDS011;2362;50.780;0.292;2022-12-05T06:13:41;117.05;;;45.47;;
4696;SDS011;2362;50.780;0.292;2022-12-05T06:16:07;106.40;;;43.47;;
4696;SDS011;2362;50.780;0.292;2022-12-05T06:18:35;103.47;;;45.10;;
4696;SDS011;2362;50.780;0.292;2022-12-05T06:21:01;110.65;;;42.55;;
4696;SDS011;2362;50.780;0.292;2022-12-05T06:23:28;114.68;;;44.53;;
4696;SDS011;2362;50.780;0.292;2022-12-05T06:25:54;103.25;;;44.60;;
4696;SDS011;2362;50.780;0.292;2022-12-05T06:28:21;106.68;;;46.58;;
4696;SDS011;2362;50.780;0.292;2022-12-05T06:30:48;100.32;;;44.42;;
4696;SDS011;2362;50.780;0.292;2022-12-05T06:33:14;113.40;;;47.15;;
4696;SDS011;2362;50.780;0.292;2022-12-05T06:35:40;100.82;;;46.53;;
4696;SDS011;2362;50.780;0.292;2022-12-05T06:38:07;107.88;;;45.35;;
4696;SDS011;2362;50.780;0.292;2022-12-05T06:40:40;101.15;;;46.55;;
4696;SDS011;2362;50.780;0.292;2022-12-05T06:43:07;108.47;;;45.33;;
4696;SDS011;2362;50.780;0.292;2022-12-05T06:45:33;102.32;;;45.10;;
4696;SDS011;2362;50.780;0.292;2022-12-05T06:48:01;106.68;;;44.95;;
4696;SDS011;2362;50.780;0.292;2022-12-05T06:50:26;105.05;;;45.17;;
4696;SDS011;2362;50.780;0.292;2022-12-05T06:52:52;106.20;;;45.30;;
4696;SDS011;2362;50.780;0.292;2022-12-05T06:55:18;104.63;;;46.53;;
4696;SDS011;2362;50.780;0.292;2022-12-05T06:57:43;98.95;;;44.92;;
4696;SDS011;2362;50.780;0.292;2022-12-05T07:00:09;101.32;;;45.58;;
4696;SDS011;2362;50.780;0.292;2022-12-05T07:02:54;106.25;;;43.92;;
4696;SDS011;2362;50.780;0.292;2022-12-05T07:05:19;104.38;;;44.38;;
4696;SDS011;2362;50.780;0.292;2022-12-05T07:07:45;106.88;;;45.53;;
4696;SDS011;2362;50.780;0.292;2022-12-05T07:10:11;102.60;;;44.90;;
4696;SDS011;2362;50.780;0.292;2022-12-05T07:12:36;100.45;;;42.40;;
4696;SDS011;2362;50.780;0.292;2022-12-05T07:15:02;100.95;;;42.13;;
4696;SDS011;2362;50.780;0.292;2022-12-05T07:17:28;100.05;;;44.05;;
4696;SDS011;2362;50.780;0.292;2022-12-05T07:19:54;101.10;;;43.17;;
4696;SDS011;2362;50.780;0.292;2022-12-05T07:22:21;87.10;;;42.88;;
4696;SDS011;2362;50.780;0.292;2022-12-05T07:24:49;92.15;;;41.40;;
4696;SDS011;2362;50.780;0.292;2022-12-05T07:27:16;91.95;;;44.85;;
4696;SDS011;2362;50.780;0.292;2022-12-05T07:29:41;86.15;;;42.33;;
4696;SDS011;2362;50.780;0.292;2022-12-05T07:32:07;96.47;;;43.70;;
4696;SDS011;2362;50.780;0.292;2022-12-05T07:34:33;101.68;;;43.85;;
4696;SDS011;2362;50.780;0.292;2022-12-05T07:36:59;92.38;;;41.80;;
4696;SDS011;2362;50.780;0.292;2022-12-05T07:39:25;82.90;;;43.10;;
4696;SDS011;2362;50.780;0.292;2022-12-05T07:41:51;87.85;;;40.78;;
4696;SDS011;2362;50.780;0.292;2022-12-05T07:44:17;98.07;;;41.13;;
4696;SDS011;2362;50.780;0.292;2022-12-05T07:46:42;91.95;;;43.17;;
4696;SDS011;2362;50.780;0.292;2022-12-05T07:49:08;90.22;;;43.53;;
4696;SDS011;2362;50.780;0.292;2022-12-05T07:51:34;95.95;;;41.40;;
4696;SDS011;2362;50.780;0.292;2022-12-05T07:54:00;92.60;;;41.75;;
4696;SDS011;2362;50.780;0.292;2022-12-05T07:56:26;91.20;;;40.50;;
4696;SDS011;2362;50.780;0.292;2022-12-05T07:58:52;87.10;;;39.58;;
4696;SDS011;2362;50.780;0.292;2022-12-05T08:01:19;87.03;;;39.78;;
4696;SDS011;2362;50.780;0.292;2022-12-05T08:03:51;87.05;;;40.45;;
4696;SDS011;2362;50.780;0.292;2022-12-05T08:06:19;95.03;;;39.75;;
4696;SDS011;2362;50.780;0.292;2022-12-05T08:08:46;86.38;;;39.72;;
4696;SDS011;2362;50.780;0.292;2022-12-05T08:11:36;80.68;;;39.08;;
4696;SDS011;2362;50.780;0.292;2022-12-05T08:14:02;86.88;;;38.10;;
4696;SDS011;2362;50.780;0.292;2022-12-05T08:16:29;79.50;;;39.28;;
4696;SDS011;2362;50.780;0.292;2022-12-05T08:18:59;84.57;;;39.80;;
4696;SDS011;2362;50.780;0.292;2022-12-05T08:21:27;75.35;;;37.75;;
4696;SDS011;2362;50.780;0.292;2022-12-05T08:23:53;85.68;;;38.85;;
4696;SDS011;2362;50.780;0.292;2022-12-05T08:26:26;87.95;;;39.13;;
4696;SDS011;2362;50.780;0.292;2022-12-05T08:28:57;77.07;;;38.05;;
4696;SDS011;2362;50.780;0.292;2022-12-05T08:31:25;80.93;;;37.50;;
4696;SDS011;2362;50.780;0.292;2022-12-05T08:33:54;80.35;;;36.90;;
4696;SDS011;2362;50.780;0.292;2022-12-05T08:36:21;79.40;;;37.35;;
4696;SDS011;2362;50.780;0.292;2022-12-05T08:38:47;78.53;;;36.92;;
4696;SDS011;2362;50.780;0.292;2022-12-05T08:41:14;83.85;;;35.65;;
4696;SDS011;2362;50.780;0.292;2022-12-05T08:43:41;73.07;;;35.35;;
4696;SDS011;2362;50.780;0.292;2022-12-05T08:46:07;67.50;;;34.38;;
4696;SDS011;2362;50.780;0.292;2022-12-05T08:48:33;64.50;;;34.42;;
4696;SDS011;2362;50.780;0.292;2022-12-05T08:51:03;76.80;;;36.42;;
4696;SDS011;2362;50.780;0.292;2022-12-05T08:53:36;71.40;;;34.95;;
4696;SDS011;2362;50.780;0.292;2022-12-05T08:56:03;78.45;;;34.20;;
4696;SDS011;2362;50.780;0.292;2022-12-05T08:58:30;83.53;;;34.85;;
4696;SDS011;2362;50.780;0.292;2022-12-05T09:01:09;68.15;;;34.20;;
4696;SDS011;2362;50.780;0.292;2022-12-05T09:03:40;69.07;;;33.22;;
4696;SDS011;2362;50.780;0.292;2022-12-05T09:06:12;72.28;;;32.47;;
4696;SDS011;2362;50.780;0.292;2022-12-05T09:08:40;69.95;;;31.85;;
4696;SDS011;2362;50.780;0.292;2022-12-05T09:11:11;66.85;;;32.83;;
4696;SDS011;2362;50.780;0.292;2022-12-05T09:13:49;68.78;;;33.08;;
4696;SDS011;2362;50.780;0.292;2022-12-05T09:16:17;68.05;;;32.10;;
4696;SDS011;2362;50.780;0.292;2022-12-05T09:18:46;76.15;;;33.88;;
4696;SDS011;2362;50.780;0.292;2022-12-05T09:21:15;67.88;;;33.47;;
4696;SDS011;2362;50.780;0.292;2022-12-05T09:23:45;70.53;;;34.88;;
4696;SDS011;2362;50.780;0.292;2022-12-05T09:26:12;64.00;;;33.00;;
4696;SDS011;2362;50.780;0.292;2022-12-05T09:28:40;75.60;;;34.22;;
4696;SDS011;2362;50.780;0.292;2022-12-05T09:31:10;62.85;;;33.65;;
4696;SDS011;2362;50.780;0.292;2022-12-05T09:33:38;67.80;;;34.10;;
4696;SDS011;2362;50.780;0.292;2022-12-05T09:36:05;75.75;;;34.05;;
4696;SDS011;2362;50.780;0.292;2022-12-05T09:38:33;71.25;;;35.70;;
4696;SDS011;2362;50.780;0.292;2022-12-05T09:47:16;65.38;;;31.63;;
4696;SDS011;2362;50.780;0.292;2022-12-05T09:50:02;64.88;;;33.35;;
4696;SDS011;2362;50.780;0.292;2022-12-05T10:04:00;65.53;;;31.17;;
4696;SDS011;2362;50.780;0.292;2022-12-05T10:18:07;68.53;;;32.58;;
4696;SDS011;2362;50.780;0.292;2022-12-05T10:20:50;66.20;;;33.97;;
4696;SDS011;2362;50.780;0.292;2022-12-05T10:23:22;58.92;;;30.70;;
4696;SDS011;2362;50.780;0.292;2022-12-05T10:26:14;67.30;;;31.27;;
4696;SDS011;2362;50.780;0.292;2022-12-05T10:28:52;66.00;;;31.65;;
4696;SDS011;2362;50.780;0.292;2022-12-05T10:31:43;57.42;;;32.15;;
4696;SDS011;2362;50.780;0.292;2022-12-05T10:36:57;61.40;;;32.28;;
4696;SDS011;2362;50.780;0.292;2022-12-05T10:39:33;63.72;;;31.63;;
4696;SDS011;2362;50.780;0.292;2022-12-05T10:41:59;69.05;;;31.20;;
4696;SDS011;2362;50.780;0.292;2022-12-05T10:44:25;63.95;;;31.48;;
4696;SDS011;2362;50.780;0.292;2022-12-05T10:46:51;62.05;;;32.50;;
4696;SDS011;2362;50.780;0.292;2022-12-05T10:49:17;62.08;;;31.75;;
4696;SDS011;2362;50.780;0.292;2022-12-05T10:51:43;61.20;;;32.88;;
4696;SDS011;2362;50.780;0.292;2022-12-05T10:54:14;75.57;;;31.80;;
4696;SDS011;2362;50.780;0.292;2022-12-05T10:56:47;65.53;;;31.00;;
4696;SDS011;2362;50.780;0.292;2022-12-05T10:59:19;76.15;;;33.33;;
4696;SDS011;2362;50.780;0.292;2022-12-05T11:01:53;71.15;;;32.35;;
4696;SDS011;2362;50.780;0.292;2022-12-05T11:04:28;62.63;;;30.55;;
4696;SDS011;2362;50.780;0.292;2022-12-05T11:06:57;67.57;;;33.83;;
4696;SDS011;2362;50.780;0.292;2022-12-05T11:09:26;65.63;;;31.83;;
4696;SDS011;2362;50.780;0.292;2022-12-05T11:15:32;69.90;;;33.53;;
4696;SDS011;2362;50.780;0.292;2022-12-05T11:17:50;62.13;;;32.58;;
4696;SDS011;2362;50.780;0.292;2022-12-05T11:22:47;63.72;;;33.50;;
4696;SDS011;2362;50.780;0.292;2022-12-05T11:25:33;76.75;;;34.72;;
4696;SDS011;2362;50.780;0.292;2022-12-05T11:31:03;64.88;;;33.90;;
4696;SDS011;2362;50.780;0.292;2022-12-05T11:33:43;65.93;;;32.90;;
4696;SDS011;2362;50.780;0.292;2022-12-05T11:36:48;71.20;;;32.53;;
4696;SDS011;2362;50.780;0.292;2022-12-05T11:39:18;78.22;;;33.75;;
4696;SDS011;2362;50.780;0.292;2022-12-05T11:55:50;74.43;;;32.67;;
4696;SDS011;2362;50.780;0.292;2022-12-05T11:58:33;67.97;;;33.80;;
4696;SDS011;2362;50.780;0.292;2022-12-05T12:01:33;71.45;;;36.80;;
4696;SDS011;2362;50.780;0.292;2022-12-05T12:10:32;72.00;;;32.95;;
4696;SDS011;2362;50.780;0.292;2022-12-05T12:13:25;74.13;;;32.03;;
4696;SDS011;2362;50.780;0.292;2022-12-05T12:16:01;62.65;;;30.00;;
4696;SDS011;2362;50.780;0.292;2022-12-05T12:18:51;66.95;;;32.47;;
4696;SDS011;2362;50.780;0.292;2022-12-05T12:30:17;70.40;;;29.48;;
4696;SDS011;2362;50.780;0.292;2022-12-05T12:35:30;60.92;;;30.55;;
4696;SDS011;2362;50.780;0.292;2022-12-05T12:40:34;62.35;;;29.13;;
4696;SDS011;2362;50.780;0.292;2022-12-05T12:51:02;56.00;;;31.05;;
4696;SDS011;2362;50.780;0.292;2022-12-05T12:59:13;60.72;;;30.38;;
4696;SDS011;2362;50.780;0.292;2022-12-05T13:04:35;59.80;;;28.48;;
4696;SDS011;2362;50.780;0.292;2022-12-05T13:12:23;58.85;;;27.60;;
4696;SDS011;2362;50.780;0.292;2022-12-05T13:14:54;49.17;;;27.40;;
4696;SDS011;2362;50.780;0.292;2022-12-05T13:17:28;55.00;;;28.65;;
4696;SDS011;2362;50.780;0.292;2022-12-05T13:19:56;48.92;;;26.75;;
4696;SDS011;2362;50.780;0.292;2022-12-05T13:22:22;53.92;;;27.88;;
4696;SDS011;2362;50.780;0.292;2022-12-05T13:24:50;53.70;;;28.45;;
4696;SDS011;2362;50.780;0.292;2022-12-05T13:27:18;55.28;;;28.20;;
4696;SDS011;2362;50.780;0.292;2022-12-05T13:29:57;62.63;;;28.73;;
4696;SDS011;2362;50.780;0.292;2022-12-05T13:32:32;53.83;;;27.85;;
4696;SDS011;2362;50.780;0.292;2022-12-05T13:35:00;61.90;;;26.80;;
4696;SDS011;2362;50.780;0.292;2022-12-05T13:37:31;64.50;;;27.85;;
4696;SDS011;2362;50.780;0.292;2022-12-05T13:43:12;54.70;;;25.55;;
4696;SDS011;2362;50.780;0.292;2022-12-05T13:45:47;51.15;;;27.40;;
4696;SDS011;2362;50.780;0.292;2022-12-05T13:48:29;57.85;;;25.45;;
4696;SDS011;2362;50.780;0.292;2022-12-05T13:51:00;51.08;;;25.77;;
4696;SDS011;2362;50.780;0.292;2022-12-05T13:53:57;53.88;;;24.88;;
4696;SDS011;2362;50.780;0.292;2022-12-05T13:57:42;56.08;;;24.58;;
4696;SDS011;2362;50.780;0.292;2022-12-05T14:07:44;41.53;;;21.50;;
4696;SDS011;2362;50.780;0.292;2022-12-05T14:10:14;45.70;;;21.65;;
4696;SDS011;2362;50.780;0.292;2022-12-05T14:15:43;37.50;;;19.48;;
4696;SDS011;2362;50.780;0.292;2022-12-05T14:18:04;38.50;;;19.85;;
4696;SDS011;2362;50.780;0.292;2022-12-05T14:29:37;35.55;;;17.90;;
4696;SDS011;2362;50.780;0.292;2022-12-05T14:37:54;33.75;;;16.98;;
4696;SDS011;2362;50.780;0.292;2022-12-05T14:40:30;47.30;;;18.65;;
4696;SDS011;2362;50.780;0.292;2022-12-05T14:46:13;37.42;;;16.98;;
4696;SDS011;2362;50.780;0.292;2022-12-05T14:48:39;38.50;;;16.63;;
4696;SDS011;2362;50.780;0.292;2022-12-05T14:51:55;39.00;;;17.50;;
4696;SDS011;2362;50.780;0.292;2022-12-05T14:56:31;42.22;;;15.95;;
4696;SDS011;2362;50.780;0.292;2022-12-05T15:01:54;28.17;;;14.57;;
4696;SDS011;2362;50.780;0.292;2022-12-05T15:06:56;31.60;;;13.52;;
4696;SDS011;2362;50.780;0.292;2022-12-05T15:09:30;37.03;;;14.57;;
4696;SDS011;2362;50.780;0.292;2022-12-05T15:12:19;24.30;;;12.70;;
4696;SDS011;2362;50.780;0.292;2022-12-05T15:17:49;34.00;;;14.85;;
4696;SDS011;2362;50.780;0.292;2022-12-05T15:20:24;34.70;;;13.85;;
4696;SDS011;2362;50.780;0.292;2022-12-05T15:23:00;30.05;;;13.32;;
4696;SDS011;2362;50.780;0.292;2022-12-05T15:25:28;28.33;;;14.80;;
4696;SDS011;2362;50.780;0.292;2022-12-05T15:28:05;27.98;;;12.40;;
4696;SDS011;2362;50.780;0.292;2022-12-05T15:30:43;29.35;;;14.63;;
4696;SDS011;2362;50.780;0.292;2022-12-05T15:33:19;31.25;;;13.93;;
4696;SDS011;2362;50.780;0.292;2022-12-05T15:35:45;34.92;;;16.13;;
4696;SDS011;2362;50.780;0.292;2022-12-05T15:38:17;30.83;;;14.98;;
4696;SDS011;2362;50.780;0.292;2022-12-05T15:40:47;37.92;;;18.35;;
4696;SDS011;2362;50.780;0.292;2022-12-05T15:43:34;43.72;;;16.52;;
4696;SDS011;2362;50.780;0.292;2022-12-05T15:46:20;38.92;;;15.52;;
4696;SDS011;2362;50.780;0.292;2022-12-05T15:48:55;36.08;;;15.13;;
4696;SDS011;2362;50.780;0.292;2022-12-05T15:51:26;32.70;;;15.00;;
4696;SDS011;2362;50.780;0.292;2022-12-05T15:54:03;25.98;;;13.85;;
4696;SDS011;2362;50.780;0.292;2022-12-05T15:56:39;34.20;;;13.95;;
4696;SDS011;2362;50.780;0.292;2022-12-05T16:01:44;34.03;;;15.55;;
4696;SDS011;2362;50.780;0.292;2022-12-05T16:04:29;37.97;;;16.40;;
4696;SDS011;2362;50.780;0.292;2022-12-05T16:07:07;39.03;;;15.25;;
4696;SDS011;2362;50.780;0.292;2022-12-05T16:09:37;29.88;;;14.45;;
4696;SDS011;2362;50.780;0.292;2022-12-05T16:12:14;39.45;;;16.20;;
4696;SDS011;2362;50.780;0.292;2022-12-05T16:14:51;35.63;;;14.13;;
4696;SDS011;2362;50.780;0.292;2022-12-05T16:17:21;33.38;;;14.10;;
4696;SDS011;2362;50.780;0.292;2022-12-05T16:19:47;33.53;;;14.05;;
4696;SDS011;2362;50.780;0.292;2022-12-05T16:24:46;26.75;;;12.65;;
4696;SDS011;2362;50.780;0.292;2022-12-05T16:27:23;33.05;;;12.80;;
4696;SDS011;2362;50.780;0.292;2022-12-05T16:32:41;30.95;;;14.32;;
4696;SDS011;2362;50.780;0.292;2022-12-05T16:45:48;27.98;;;12.18;;
4696;SDS011;2362;50.780;0.292;2022-12-05T16:50:47;31.67;;;14.15;;
4696;SDS011;2362;50.780;0.292;2022-12-05T16:53:17;28.58;;;13.73;;
4696;SDS011;2362;50.780;0.292;2022-12-05T16:55:45;37.75;;;14.15;;
4696;SDS011;2362;50.780;0.292;2022-12-05T16:58:13;34.88;;;15.45;;
4696;SDS011;2362;50.780;0.292;2022-12-05T17:00:50;36.30;;;15.73;;
4696;SDS011;2362;50.780;0.292;2022-12-05T17:03:17;24.52;;;14.60;;
4696;SDS011;2362;50.780;0.292;2022-12-05T17:05:43;30.25;;;14.27;;
4696;SDS011;2362;50.780;0.292;2022-12-05T17:08:09;30.67;;;14.43;;
4696;SDS011;2362;50.780;0.292;2022-12-05T17:10:34;30.63;;;12.50;;
4696;SDS011;2362;50.780;0.292;2022-12-05T17:13:00;28.52;;;13.43;;
4696;SDS011;2362;50.780;0.292;2022-12-05T17:15:27;27.00;;;13.82;;
4696;SDS011;2362;50.780;0.292;2022-12-05T17:18:19;29.88;;;14.07;;
4696;SDS011;2362;50.780;0.292;2022-12-05T17:20:47;30.58;;;14.13;;
4696;SDS011;2362;50.780;0.292;2022-12-05T17:23:17;25.63;;;12.20;;
4696;SDS011;2362;50.780;0.292;2022-12-05T17:25:47;16.40;;;9.57;;
4696;SDS011;2362;50.780;0.292;2022-12-05T17:28:15;21.10;;;8.10;;
4696;SDS011;2362;50.780;0.292;2022-12-05T17:30:41;25.92;;;8.45;;
4696;SDS011;2362;50.780;0.292;2022-12-05T17:33:11;17.33;;;7.88;;
4696;SDS011;2362;50.780;0.292;2022-12-05T17:35:38;21.45;;;7.75;;
4696;SDS011;2362;50.780;0.292;2022-12-05T17:38:04;22.50;;;7.53;;
4696;SDS011;2362;50.780;0.292;2022-12-05T17:40:30;18.40;;;7.78;;
4696;SDS011;2362;50.780;0.292;2022-12-05T17:42:56;18.17;;;8.50;;
4696;SDS011;2362;50.780;0.292;2022-12-05T17:45:22;15.30;;;7.70;;
4696;SDS011;2362;50.780;0.292;2022-12-05T17:47:48;19.67;;;8.75;;
4696;SDS011;2362;50.780;0.292;2022-12-05T17:50:15;15.60;;;8.45;;
4696;SDS011;2362;50.780;0.292;2022-12-05T17:52:42;18.98;;;10.13;;
4696;SDS011;2362;50.780;0.292;2022-12-05T17:55:17;43.58;;;14.88;;
4696;SDS011;2362;50.780;0.292;2022-12-05T17:57:47;31.17;;;13.25;;
4696;SDS011;2362;50.780;0.292;2022-12-05T18:00:13;25.67;;;11.25;;
4696;SDS011;2362;50.780;0.292;2022-12-05T18:02:41;18.77;;;8.43;;
4696;SDS011;2362;50.780;0.292;2022-12-05T18:05:08;16.63;;;8.20;;
4696;SDS011;2362;50.780;0.292;2022-12-05T18:07:35;22.92;;;9.45;;
4696;SDS011;2362;50.780;0.292;2022-12-05T18:10:01;25.85;;;9.05;;
4696;SDS011;2362;50.780;0.292;2022-12-05T18:12:28;23.55;;;10.35;;
4696;SDS011;2362;50.780;0.292;2022-12-05T18:14:54;29.27;;;10.00;;
4696;SDS011;2362;50.780;0.292;2022-12-05T18:17:45;20.77;;;10.73;;
4696;SDS011;2362;50.780;0.292;2022-12-05T18:20:11;36.85;;;11.90;;
4696;SDS011;2362;50.780;0.292;2022-12-05T18:22:39;25.05;;;11.50;;
4696;SDS011;2362;50.780;0.292;2022-12-05T18:25:05;28.42;;;10.70;;
4696;SDS011;2362;50.780;0.292;2022-12-05T18:27:32;30.80;;;11.75;;